NCAR-RAP Real-Time Weather Data

Output produced by METARs form (17 December 2018  14:25 UTC)
found at http://weather.rap.ucar.edu/surface/
 
RJOO 171100Z 29007KT 240V330 9999 FEW025 09/01 Q1012 RMK 1CU025 A2991 MOD TURB OBS AT 1046Z IZUMI 9000FT IN DES E170
RJOO 171000Z 27006G17KT 240V320 9999 FEW025 BKN070 10/01 Q1012 RMK 1CU025 5AC070 A2990
RJOO 170900Z 29007KT 230V330 9999 FEW025 10/01 Q1011 RMK 1CU025 A2988
RJOO 170800Z 29008KT 240V320 9999 FEW025 11/M01 Q1010 RMK 1CU025 A2985
RJOO 170700Z 30009KT 240V330 9999 FEW025 SCT070 12/04 Q1010 RMK 1CU025 3AC070 A2983
RJOO 170600Z 30008KT 260V330 9999 FEW025 13/04 Q1009 RMK 1CU025 A2981 MOD TURB OBS AT 0530Z KAMEO BTN 12000FT AND 9000FT IN DES B738
RJOO 170500Z 29007KT 240V330 9999 FEW025 SCT070 14/01 Q1009 RMK 1CU025 3AC070 A2980
RJOO 170400Z 30008KT 240V330 9999 FEW020 14/03 Q1009 RMK 1CU020 A2981
RJOO 170300Z 28007KT 230V320 9999 FEW015 13/05 Q1010 RMK 1CU015 A2983
RJOO 170200Z 25004KT 200V340 9999 FEW010 SCT050 12/07 Q1011 RMK 1CU010 3SC050 A2986
RJOO 170100Z VRB01KT 9000 FEW005 SCT010 10/09 Q1012 RMK 1ST005 3CU010 A2989
RJOO 170000Z 00000KT 9999 FEW005 SCT010 BKN050 09/08 Q1012 RMK 1ST005 3CU010 5SC050 A2989
RJOO 162300Z VRB01KT 9999 FEW003 BKN060 08/08 Q1011 RMK 1ST003 6SC060 A2987
RJOO 162200Z VRB01KT 9999 FEW003 BKN050 07/07 Q1011 RMK 1ST003 7SC050 A2987
RJOO 162135Z 08002KT 9000 FEW003 BKN130 07/07 Q1011 RMK 1ST003 5AC130 A2987
RJOO 162124Z VRB01KT 1500 R32R/P2000N R32L/2000N BR FEW003 BKN130 07/07 Q1011 RMK 1ST003 6AC130 A2987
RJOO 162104Z 00000KT 4000 BR FEW003 BKN060 BKN120 07/07 Q1011 RMK 1ST003 5SC060 6AC120 A2986
RJOO 162100Z 00000KT 5000 BR FEW003 BKN060 BKN130 07/07 Q1011 RMK 1ST003 5SC060 6AC130 A2986
RJOO 162000Z 33003KT 5000 BR FEW003 SCT030 BKN110 08/08 Q1011 RMK 1ST003 3CU030 5AC110 A2986
RJOO 161100Z VRB02KT 5000 -RA BR FEW003 BKN035 BKN050 08/06 Q1017 RMK 1ST003 5CU035 7SC050 A3005
RJOO 161000Z 05003KT 340V100 5000 -RA BR FEW006 SCT040 BKN050 08/06 Q1018 RMK 1ST006 3SC040 7SC050 A3007
RJOO 160944Z VRB02KT 4000 -RA BR FEW006 BKN045 08/06 Q1018 RMK 1ST006 7SC045 A3008
RJOO 160900Z VRB02KT 7000 -RA FEW006 BKN040 08/06 Q1018 RMK 1ST006 7SC040 A3008
RJOO 160800Z 08004KT 9999 -RA FEW020 BKN050 09/03 Q1018 RMK 1CU020 7SC050 A3008
RJOO 160700Z 06004KT 020V090 9999 VCSH FEW030 SCT050 BKN090 10/02 Q1019 RMK 1CU030 3SC050 5AC090 A3011
RJOO 160600Z 06004KT 9999 FEW030 SCT060 BKN090 10/01 Q1020 RMK 1CU030 3SC060 6AC090 A3013
RJOO 160500Z 08003KT 9999 FEW030 SCT080 BKN120 10/01 Q1020 RMK 1CU030 3AC080 6AC120 A3014
RJOO 160400Z VRB02KT 9999 FEW030 BKN130 BKN/// 10/01 Q1022
RJOO 160300Z 10003KT 050V140 9999 FEW030 BKN130 BKN150 09/M00 Q1023 RMK 1CU030 5AC130 6AC150 A3021
RJOO 160200Z 08004KT 040V160 9999 FEW030 SCT160 BKN/// 08/M00 Q1024 RMK 1CU030 3AC160 A3026
RJOO 160100Z 07005KT 9999 FEW030 BKN/// 05/M00 Q1025 RMK 1CU030 A3029
RJOO 160000Z 06006KT 9999 FEW030 BKN160 04/M00 Q1026 RMK 1CU030 5AC160 A3030
RJOO 151100Z 31004KT 9999 FEW030 04/M01 Q1029 RMK 1CU030 A3041
RJOO 151000Z 31004KT 9999 FEW030 06/M02 Q1029 RMK 1CU030 A3040
RJOO 150900Z 01005KT 9999 FEW030 SCT050 06/M02 Q1029 RMK 1CU030 3SC050 A3039
RJOO 150800Z 36008KT 9999 FEW030 BKN050 08/M02 Q1029 RMK 1CU030 5SC050 A3039
RJOO 150700Z 02006KT 340V050 9999 FEW030 BKN050 08/M02 Q1028 RMK 1CU030 5SC050 A3038
RJOO 150600Z 32009KT 9999 FEW030 BKN050 09/M03 Q1028 RMK 1CU030 5SC050 A3038
RJOO 150500Z 02008KT 340V050 9999 FEW030 BKN050 09/M02 Q1028 RMK 1CU030 6SC050 A3038
RJOO 150400Z 35010KT 9999 FEW025 BKN060 09/M03 Q1029 RMK 1CU025 6SC060 A3039
RJOO 150300Z 33006KT 300V360 9999 FEW025 SCT050 08/M02 Q1029 RMK 1CU025 4SC050 A3041